createdAt,value
2022-09-06T00:03:57.544Z,21.10
2022-09-06T00:11:01.050Z,21.00
2022-09-06T00:18:04.437Z,21.00
2022-09-06T00:25:06.341Z,21.00
2022-09-06T00:32:06.925Z,21.00
2022-09-06T00:39:07.367Z,20.90
2022-09-06T00:46:11.757Z,20.80
2022-09-06T00:53:12.787Z,20.30
2022-09-06T01:00:13.736Z,20.00
2022-09-06T01:07:34.286Z,19.80
2022-09-06T01:14:59.867Z,19.60
2022-09-06T01:22:30.498Z,19.50
2022-09-06T01:29:34.260Z,19.50
2022-09-06T01:37:09.868Z,19.30
2022-09-06T01:44:11.347Z,19.20
2022-09-06T01:51:39.886Z,19.20
2022-09-06T01:59:08.476Z,19.10
2022-09-06T02:06:21.989Z,19.10
2022-09-06T02:13:24.875Z,18.90
2022-09-06T02:20:31.904Z,18.80
2022-09-06T02:27:33.001Z,18.70
2022-09-06T02:34:33.228Z,18.70
2022-09-06T02:41:34.453Z,18.70
2022-09-06T02:48:34.928Z,18.70
2022-09-06T02:55:36.563Z,18.70
2022-09-06T03:02:37.190Z,18.70
2022-09-06T03:09:37.690Z,18.70
2022-09-06T03:16:38.523Z,18.70
2022-09-06T03:23:39.529Z,18.60
2022-09-06T03:30:40.666Z,18.50
2022-09-06T03:37:41.346Z,18.50
2022-09-06T03:44:41.800Z,18.50
2022-09-06T03:51:42.203Z,18.50
2022-09-06T03:58:42.559Z,18.50
2022-09-06T04:05:46.668Z,18.50
2022-09-06T04:12:47.080Z,18.50
2022-09-06T04:19:47.193Z,18.40
2022-09-06T04:26:47.810Z,18.40
2022-09-06T04:33:48.236Z,18.30
2022-09-06T04:40:48.371Z,18.20
2022-09-06T04:47:50.261Z,18.10
2022-09-06T04:54:50.566Z,17.90
2022-09-06T05:01:51.019Z,17.80
2022-09-06T05:08:51.829Z,17.80
2022-09-06T05:15:52.061Z,17.70
2022-09-06T05:22:54.187Z,17.70
2022-09-06T05:29:54.678Z,17.70
2022-09-06T05:36:54.973Z,17.70
2022-09-06T05:43:55.374Z,17.70
2022-09-06T05:51:12.895Z,17.80
2022-09-06T05:58:13.006Z,17.80
2022-09-06T06:05:14.149Z,17.90
2022-09-06T06:12:14.262Z,18.00
2022-09-06T06:19:15.296Z,18.10
2022-09-06T06:26:15.741Z,18.20
2022-09-06T06:33:16.202Z,18.40
2022-09-06T06:40:16.778Z,18.60
2022-09-06T06:47:17.009Z,18.80
2022-09-06T06:54:17.442Z,19.00
2022-09-06T07:01:20.538Z,19.30
2022-09-06T07:08:20.993Z,19.50
2022-09-06T07:15:21.237Z,19.80
2022-09-06T07:22:21.520Z,20.00
2022-09-06T07:29:21.838Z,20.20
2022-09-06T07:36:22.459Z,20.50
2022-09-06T07:43:23.055Z,20.70
2022-09-06T07:57:46.230Z,21.30
2022-09-06T08:04:51.050Z,21.50
2022-09-06T08:11:52.641Z,21.80
2022-09-06T08:18:57.803Z,22.10
2022-09-06T08:25:59.291Z,22.30
2022-09-06T08:32:59.747Z,22.50
2022-09-06T08:39:59.910Z,22.70
2022-09-06T08:47:06.368Z,22.90
2022-09-06T08:54:30.198Z,23.20
2022-09-06T09:01:41.306Z,23.50
2022-09-06T09:08:58.721Z,23.70
2022-09-06T09:15:59.296Z,24.00
2022-09-06T09:23:01.076Z,24.30
2022-09-06T09:44:48.021Z,25.00
2022-09-06T09:52:12.273Z,25.30
2022-09-06T09:59:22.587Z,25.50
2022-09-06T10:13:47.297Z,25.90
2022-09-06T10:20:56.022Z,26.00
2022-09-06T10:28:34.585Z,26.30
2022-09-06T10:35:38.441Z,26.70
2022-09-06T10:42:46.872Z,26.80
2022-09-06T10:49:56.125Z,27.00
2022-09-06T10:57:02.505Z,26.90
2022-09-06T11:04:12.442Z,27.00
2022-09-06T11:11:42.509Z,27.30
2022-09-06T11:18:49.112Z,27.40
2022-09-06T11:26:26.808Z,27.60
2022-09-06T11:33:30.309Z,27.80
2022-09-06T11:40:38.454Z,28.00
2022-09-06T11:47:45.247Z,28.30
2022-09-06T11:54:47.545Z,28.50
2022-09-06T12:02:01.465Z,28.60
2022-09-06T12:09:02.966Z,28.70
2022-09-06T12:16:03.490Z,28.80
2022-09-06T12:23:03.779Z,28.90
2022-09-06T12:30:12.722Z,29.30
2022-09-06T12:37:13.225Z,29.70
2022-09-06T12:44:15.813Z,29.90
2022-09-06T12:51:20.715Z,30.10
2022-09-06T12:58:28.452Z,30.20
2022-09-06T13:05:29.246Z,30.30
2022-09-06T13:12:35.315Z,30.50
2022-09-06T13:19:38.320Z,30.70
2022-09-06T13:26:40.245Z,30.80
2022-09-06T13:33:41.829Z,31.00
2022-09-06T13:41:06.970Z,31.20
2022-09-06T13:48:26.138Z,31.30
2022-09-06T13:55:30.303Z,31.30
2022-09-06T14:02:30.542Z,31.30
2022-09-06T14:09:30.965Z,31.50
2022-09-06T14:16:32.171Z,31.70
2022-09-06T14:23:33.003Z,32.00
2022-09-06T14:30:33.541Z,32.30
2022-09-06T14:37:34.426Z,32.60
2022-09-06T14:44:34.807Z,32.60
2022-09-06T14:51:36.806Z,32.20
2022-09-06T14:58:38.426Z,32.10
2022-09-06T15:05:38.341Z,32.30
2022-09-06T15:12:38.631Z,32.50
2022-09-06T15:19:39.555Z,32.60
2022-09-06T15:26:41.426Z,32.80
2022-09-06T15:33:41.692Z,33.10
2022-09-06T15:40:42.066Z,33.30
2022-09-06T15:47:43.167Z,33.40
2022-09-06T15:55:02.177Z,33.50
2022-09-06T16:02:03.327Z,33.30
2022-09-06T16:09:14.362Z,33.00
2022-09-06T16:16:16.599Z,32.90
2022-09-06T16:23:17.613Z,32.70
2022-09-06T16:30:18.021Z,32.40
2022-09-06T16:37:18.581Z,32.20
2022-09-06T16:44:18.891Z,31.80
2022-09-06T16:51:20.828Z,31.50
2022-09-06T16:58:23.766Z,31.20
2022-09-06T17:05:24.124Z,31.00
2022-09-06T17:12:24.459Z,30.70
2022-09-06T17:19:25.142Z,30.40
2022-09-06T17:26:25.558Z,30.10
2022-09-06T17:33:25.909Z,29.90
2022-09-06T17:40:26.449Z,29.70
2022-09-06T17:47:27.303Z,29.50
2022-09-06T17:54:28.199Z,29.20
2022-09-06T18:01:30.551Z,29.00
2022-09-06T18:08:31.153Z,28.90
2022-09-06T18:15:32.132Z,28.60
2022-09-06T18:22:33.060Z,28.30
2022-09-06T18:29:33.354Z,28.10
2022-09-06T18:36:33.736Z,27.80
2022-09-06T18:43:39.763Z,27.60
2022-09-06T18:50:40.148Z,27.20
2022-09-06T18:57:40.769Z,27.10
2022-09-06T19:04:40.839Z,27.00
2022-09-06T19:11:46.892Z,27.00
2022-09-06T19:18:47.585Z,26.80
2022-09-06T19:25:55.175Z,26.60
2022-09-06T19:32:55.397Z,26.50
2022-09-06T19:39:56.489Z,26.40
2022-09-06T19:46:56.878Z,26.20
2022-09-06T19:54:00.281Z,26.10
2022-09-06T20:01:01.182Z,25.90
2022-09-06T20:08:01.687Z,25.80
2022-09-06T20:15:02.221Z,25.70
2022-09-06T20:22:03.080Z,25.60
2022-09-06T20:29:04.926Z,25.40
2022-09-06T20:36:08.040Z,25.30
2022-09-06T20:43:08.404Z,25.10
2022-09-06T20:50:09.186Z,25.00
2022-09-06T20:57:09.551Z,24.90
2022-09-06T21:04:11.317Z,24.60
2022-09-06T21:11:11.685Z,24.30
2022-09-06T21:18:12.892Z,24.00
2022-09-06T21:25:13.320Z,23.80
2022-09-06T21:32:13.664Z,23.60
2022-09-06T21:39:14.693Z,23.30
2022-09-06T21:46:19.655Z,23.20
2022-09-06T21:53:21.638Z,23.20
2022-09-06T22:00:22.004Z,23.40
2022-09-06T22:07:22.353Z,23.50
2022-09-06T22:14:22.922Z,23.60
2022-09-06T22:21:23.637Z,23.70
2022-09-06T22:28:23.969Z,23.70
2022-09-06T22:35:24.492Z,23.70
2022-09-06T22:42:24.874Z,23.60
2022-09-06T22:49:25.555Z,23.50
2022-09-06T22:56:25.762Z,23.50
2022-09-06T23:03:25.999Z,23.40
2022-09-06T23:10:26.346Z,23.30
2022-09-06T23:17:26.659Z,23.30
2022-09-06T23:24:27.170Z,23.20
2022-09-06T23:31:31.234Z,22.60
2022-09-06T23:38:33.916Z,20.90
2022-09-06T23:45:34.256Z,18.70
2022-09-06T23:52:34.624Z,17.70
2022-09-06T23:59:35.009Z,17.30
